sensor_id;sensor_type;location;lat;lon;timestamp;pressure;altitude;pressure_sealevel;temperature;humidity
76124;BME280;65173;48.066;20.976;2023-06-10T00:00:45;100060.81;;;16.84;100.00
76124;BME280;65173;48.066;20.976;2023-06-10T00:03:50;100058.81;;;16.78;100.00
76124;BME280;65173;48.066;20.976;2023-06-10T00:06:53;100061.16;;;16.79;100.00
76124;BME280;65173;48.066;20.976;2023-06-10T00:10:27;100063.16;;;16.86;100.00
76124;BME280;65173;48.066;20.976;2023-06-10T00:13:31;100063.47;;;16.81;100.00
76124;BME280;65173;48.066;20.976;2023-06-10T00:16:34;100043.88;;;16.80;100.00
76124;BME280;65173;48.066;20.976;2023-06-10T00:19:39;100064.72;;;16.87;100.00
76124;BME280;65173;48.066;20.976;2023-06-10T00:22:43;100056.28;;;16.88;100.00
76124;BME280;65173;48.066;20.976;2023-06-10T00:25:48;100056.22;;;16.85;100.00
76124;BME280;65173;48.066;20.976;2023-06-10T00:28:50;100058.47;;;16.79;100.00
76124;BME280;65173;48.066;20.976;2023-06-10T00:31:56;100056.22;;;16.85;100.00
76124;BME280;65173;48.066;20.976;2023-06-10T00:35:00;100059.94;;;16.77;100.00
76124;BME280;65173;48.066;20.976;2023-06-10T00:38:03;100060.31;;;16.75;100.00
76124;BME280;65173;48.066;20.976;2023-06-10T00:41:05;100060.53;;;16.66;100.00
76124;BME280;65173;48.066;20.976;2023-06-10T00:44:10;100065.19;;;16.70;100.00
76124;BME280;65173;48.066;20.976;2023-06-10T00:47:13;100064.75;;;16.64;100.00
76124;BME280;65173;48.066;20.976;2023-06-10T00:50:16;100062.06;;;16.64;100.00
76124;BME280;65173;48.066;20.976;2023-06-10T00:53:19;100063.19;;;16.63;100.00
76124;BME280;65173;48.066;20.976;2023-06-10T00:56:23;100061.31;;;16.67;100.00
76124;BME280;65173;48.066;20.976;2023-06-10T00:59:28;100066.28;;;16.65;100.00
76124;BME280;65173;48.066;20.976;2023-06-10T01:02:32;100057.44;;;16.64;100.00
76124;BME280;65173;48.066;20.976;2023-06-10T01:05:35;100055.53;;;16.65;100.00
76124;BME280;65173;48.066;20.976;2023-06-10T01:08:49;100055.78;;;16.60;100.00
76124;BME280;65173;48.066;20.976;2023-06-10T01:12:05;100061.94;;;16.60;100.00
76124;BME280;65173;48.066;20.976;2023-06-10T01:15:11;100061.53;;;16.58;100.00
76124;BME280;65173;48.066;20.976;2023-06-10T01:18:14;100052.69;;;16.58;100.00
76124;BME280;65173;48.066;20.976;2023-06-10T01:21:22;100051.47;;;16.55;100.00
76124;BME280;65173;48.066;20.976;2023-06-10T01:24:29;100055.38;;;16.58;100.00
76124;BME280;65173;48.066;20.976;2023-06-10T01:27:37;100059.84;;;16.50;100.00
76124;BME280;65173;48.066;20.976;2023-06-10T01:34:18;100058.69;;;16.51;100.00
76124;BME280;65173;48.066;20.976;2023-06-10T01:37:24;100059.47;;;16.52;100.00
76124;BME280;65173;48.066;20.976;2023-06-10T01:40:29;100063.97;;;16.63;100.00
76124;BME280;65173;48.066;20.976;2023-06-10T01:43:33;100059.75;;;16.66;100.00
76124;BME280;65173;48.066;20.976;2023-06-10T01:46:36;100066.91;;;16.58;100.00
76124;BME280;65173;48.066;20.976;2023-06-10T01:49:39;100065.19;;;16.70;100.00
76124;BME280;65173;48.066;20.976;2023-06-10T01:52:43;100062.09;;;16.67;100.00
76124;BME280;65173;48.066;20.976;2023-06-10T01:55:45;100067.63;;;16.55;100.00
76124;BME280;65173;48.066;20.976;2023-06-10T01:58:48;100056.78;;;16.71;100.00
76124;BME280;65173;48.066;20.976;2023-06-10T02:01:51;100057.19;;;16.73;100.00
76124;BME280;65173;48.066;20.976;2023-06-10T02:04:54;100068.13;;;16.61;100.00
76124;BME280;65173;48.066;20.976;2023-06-10T02:07:57;100057.84;;;16.66;100.00
76124;BME280;65173;48.066;20.976;2023-06-10T02:11:00;100055.16;;;16.66;100.00
76124;BME280;65173;48.066;20.976;2023-06-10T02:14:04;100057.34;;;16.61;100.00
76124;BME280;65173;48.066;20.976;2023-06-10T02:17:07;100065.91;;;16.66;100.00
76124;BME280;65173;48.066;20.976;2023-06-10T02:20:17;100054.06;;;16.71;100.00
76124;BME280;65173;48.066;20.976;2023-06-10T02:23:20;100056.91;;;16.78;100.00
76124;BME280;65173;48.066;20.976;2023-06-10T02:26:22;100058.53;;;16.83;100.00
76124;BME280;65173;48.066;20.976;2023-06-10T02:29:25;100059.31;;;16.83;100.00
76124;BME280;65173;48.066;20.976;2023-06-10T02:32:28;100055.84;;;16.83;100.00
76124;BME280;65173;48.066;20.976;2023-06-10T02:35:31;100067.13;;;16.92;100.00
76124;BME280;65173;48.066;20.976;2023-06-10T02:38:34;100061.25;;;16.86;100.00
76124;BME280;65173;48.066;20.976;2023-06-10T02:41:37;100061.56;;;16.81;100.00
76124;BME280;65173;48.066;20.976;2023-06-10T02:44:40;100056.19;;;16.81;100.00
76124;BME280;65173;48.066;20.976;2023-06-10T02:47:48;100063.66;;;16.91;100.00
76124;BME280;65173;48.066;20.976;2023-06-10T02:50:51;100064.00;;;16.90;100.00
76124;BME280;65173;48.066;20.976;2023-06-10T02:54:01;100064.28;;;16.85;100.00
76124;BME280;65173;48.066;20.976;2023-06-10T02:57:04;100062.03;;;16.87;100.00
76124;BME280;65173;48.066;20.976;2023-06-10T03:00:08;100067.44;;;16.64;100.00
76124;BME280;65173;48.066;20.976;2023-06-10T03:03:15;100061.03;;;16.72;100.00
76124;BME280;65173;48.066;20.976;2023-06-10T03:06:31;100069.94;;;16.76;100.00
76124;BME280;65173;48.066;20.976;2023-06-10T03:09:45;100064.97;;;16.78;100.00
76124;BME280;65173;48.066;20.976;2023-06-10T03:12:49;100067.06;;;16.65;100.00
76124;BME280;65173;48.066;20.976;2023-06-10T03:15:52;100066.66;;;16.63;100.00
76124;BME280;65173;48.066;20.976;2023-06-10T03:18:57;100066.19;;;16.81;100.00
76124;BME280;65173;48.066;20.976;2023-06-10T03:22:14;100071.44;;;16.74;100.00
76124;BME280;65173;48.066;20.976;2023-06-10T03:25:27;100066.75;;;16.71;100.00
76124;BME280;65173;48.066;20.976;2023-06-10T03:28:31;100078.31;;;16.71;100.00
76124;BME280;65173;48.066;20.976;2023-06-10T03:31:34;100081.34;;;16.50;100.00
76124;BME280;65173;48.066;20.976;2023-06-10T03:34:40;100082.84;;;16.67;100.00
76124;BME280;65173;48.066;20.976;2023-06-10T03:37:44;100083.81;;;16.78;100.00
76124;BME280;65173;48.066;20.976;2023-06-10T03:40:48;100081.13;;;16.78;100.00
76124;BME280;65173;48.066;20.976;2023-06-10T03:43:50;100073.53;;;16.84;100.00
76124;BME280;65173;48.066;20.976;2023-06-10T03:46:54;100068.38;;;16.75;100.00
76124;BME280;65173;48.066;20.976;2023-06-10T03:49:57;100074.84;;;16.71;100.00
76124;BME280;65173;48.066;20.976;2023-06-10T03:53:00;100080.63;;;16.73;100.00
76124;BME280;65173;48.066;20.976;2023-06-10T03:56:04;100079.72;;;16.88;100.00
76124;BME280;65173;48.066;20.976;2023-06-10T03:59:06;100089.91;;;16.98;100.00
76124;BME280;65173;48.066;20.976;2023-06-10T04:02:09;100073.28;;;16.92;100.00
76124;BME280;65173;48.066;20.976;2023-06-10T04:05:12;100074.00;;;16.89;100.00
76124;BME280;65173;48.066;20.976;2023-06-10T04:08:17;100076.59;;;16.82;100.00
76124;BME280;65173;48.066;20.976;2023-06-10T04:11:19;100074.34;;;16.88;100.00
76124;BME280;65173;48.066;20.976;2023-06-10T04:14:23;100078.25;;;16.90;100.00
76124;BME280;65173;48.066;20.976;2023-06-10T04:17:26;100067.97;;;16.96;100.00
76124;BME280;65173;48.066;20.976;2023-06-10T04:20:29;100076.03;;;16.96;100.00
76124;BME280;65173;48.066;20.976;2023-06-10T04:23:32;100070.09;;;17.10;100.00
76124;BME280;65173;48.066;20.976;2023-06-10T04:26:35;100078.66;;;17.15;100.00
76124;BME280;65173;48.066;20.976;2023-06-10T04:29:39;100076.38;;;17.17;100.00
76124;BME280;65173;48.066;20.976;2023-06-10T04:32:41;100078.75;;;17.22;100.00
76124;BME280;65173;48.066;20.976;2023-06-10T04:35:50;100089.34;;;17.34;100.00
76124;BME280;65173;48.066;20.976;2023-06-10T04:38:55;100080.56;;;17.41;100.00
76124;BME280;65173;48.066;20.976;2023-06-10T04:41:58;100083.81;;;17.27;100.00
76124;BME280;65173;48.066;20.976;2023-06-10T04:45:01;100079.28;;;17.31;100.00
76124;BME280;65173;48.066;20.976;2023-06-10T04:48:06;100087.72;;;17.30;100.00
76124;BME280;65173;48.066;20.976;2023-06-10T04:51:10;100083.25;;;17.41;100.00
76124;BME280;65173;48.066;20.976;2023-06-10T04:54:13;100086.06;;;17.48;100.00
76124;BME280;65173;48.066;20.976;2023-06-10T04:57:15;100084.63;;;17.54;100.00
76124;BME280;65173;48.066;20.976;2023-06-10T05:00:18;100088.63;;;17.64;100.00
76124;BME280;65173;48.066;20.976;2023-06-10T05:03:21;100089.03;;;17.66;100.00
76124;BME280;65173;48.066;20.976;2023-06-10T05:06:24;100088.63;;;17.64;100.00
76124;BME280;65173;48.066;20.976;2023-06-10T05:09:26;100085.66;;;17.73;100.00
76124;BME280;65173;48.066;20.976;2023-06-10T05:12:29;100083.22;;;17.94;100.00
76124;BME280;65173;48.066;20.976;2023-06-10T05:15:32;100084.19;;;18.12;100.00
76124;BME280;65173;48.066;20.976;2023-06-10T05:18:36;100083.06;;;18.13;100.00
76124;BME280;65173;48.066;20.976;2023-06-10T05:21:39;100087.41;;;18.21;100.00
76124;BME280;65173;48.066;20.976;2023-06-10T05:24:42;100081.69;;;18.30;100.00
76124;BME280;65173;48.066;20.976;2023-06-10T05:27:46;100092.91;;;18.32;100.00
76124;BME280;65173;48.066;20.976;2023-06-10T05:30:48;100088.25;;;18.29;100.00
76124;BME280;65173;48.066;20.976;2023-06-10T05:33:52;100095.28;;;18.37;100.00
76124;BME280;65173;48.066;20.976;2023-06-10T05:36:55;100105.06;;;18.52;100.00
76124;BME280;65173;48.066;20.976;2023-06-10T05:39:57;100102.13;;;18.61;100.00
76124;BME280;65173;48.066;20.976;2023-06-10T05:43:00;100098.44;;;18.83;100.00
76124;BME280;65173;48.066;20.976;2023-06-10T05:46:03;100093.56;;;18.96;100.00
76124;BME280;65173;48.066;20.976;2023-06-10T05:49:05;100097.34;;;18.88;100.00
76124;BME280;65173;48.066;20.976;2023-06-10T05:52:08;100092.97;;;19.20;100.00
76124;BME280;65173;48.066;20.976;2023-06-10T05:55:11;100090.06;;;19.47;100.00
76124;BME280;65173;48.066;20.976;2023-06-10T05:58:14;100092.47;;;19.59;100.00
76124;BME280;65173;48.066;20.976;2023-06-10T06:01:16;100093.16;;;19.49;100.00
76124;BME280;65173;48.066;20.976;2023-06-10T06:04:20;100095.88;;;19.49;100.00
76124;BME280;65173;48.066;20.976;2023-06-10T06:07:22;100096.94;;;19.33;100.00
76124;BME280;65173;48.066;20.976;2023-06-10T06:10:25;100095.63;;;19.71;100.00
76124;BME280;65173;48.066;20.976;2023-06-10T06:13:28;100091.41;;;19.77;100.00
76124;BME280;65173;48.066;20.976;2023-06-10T06:16:32;100098.78;;;19.84;100.00
76124;BME280;65173;48.066;20.976;2023-06-10T06:19:35;100099.19;;;19.90;100.00
76124;BME280;65173;48.066;20.976;2023-06-10T06:22:37;100096.13;;;19.95;100.00
76124;BME280;65173;48.066;20.976;2023-06-10T06:25:40;100099.59;;;19.95;100.00
76124;BME280;65173;48.066;20.976;2023-06-10T06:28:43;100098.44;;;19.93;100.00
76124;BME280;65173;48.066;20.976;2023-06-10T06:31:46;100103.53;;;20.12;100.00
76124;BME280;65173;48.066;20.976;2023-06-10T06:34:49;100095.78;;;20.07;100.00
76124;BME280;65173;48.066;20.976;2023-06-10T06:37:56;100100.84;;;20.16;100.00
76124;BME280;65173;48.066;20.976;2023-06-10T06:41:03;100099.31;;;20.25;100.00
76124;BME280;65173;48.066;20.976;2023-06-10T06:44:08;100101.00;;;20.65;100.00
76124;BME280;65173;48.066;20.976;2023-06-10T06:47:16;100102.91;;;20.47;100.00
76124;BME280;65173;48.066;20.976;2023-06-10T06:50:22;100102.53;;;20.66;100.00
76124;BME280;65173;48.066;20.976;2023-06-10T06:53:25;100097.13;;;20.66;100.00
76124;BME280;65173;48.066;20.976;2023-06-10T06:56:30;100111.84;;;21.15;100.00
76124;BME280;65173;48.066;20.976;2023-06-10T06:59:33;100100.25;;;21.36;100.00
76124;BME280;65173;48.066;20.976;2023-06-10T07:02:35;100098.31;;;21.36;100.00
76124;BME280;65173;48.066;20.976;2023-06-10T07:05:38;100102.56;;;21.48;100.00
76124;BME280;65173;48.066;20.976;2023-06-10T07:08:42;100107.25;;;21.23;100.00
76124;BME280;65173;48.066;20.976;2023-06-10T07:11:44;100102.09;;;21.71;100.00
76124;BME280;65173;48.066;20.976;2023-06-10T07:14:47;100105.91;;;21.95;100.00
76124;BME280;65173;48.066;20.976;2023-06-10T07:17:50;100107.13;;;21.83;100.00
76124;BME280;65173;48.066;20.976;2023-06-10T07:20:53;100103.59;;;21.86;100.00
76124;BME280;65173;48.066;20.976;2023-06-10T07:23:57;100106.75;;;21.77;100.00
76124;BME280;65173;48.066;20.976;2023-06-10T07:27:00;100108.56;;;22.16;100.00
76124;BME280;65173;48.066;20.976;2023-06-10T07:30:05;100107.22;;;22.49;100.00
76124;BME280;65173;48.066;20.976;2023-06-10T07:33:10;100101.56;;;22.88;100.00
76124;BME280;65173;48.066;20.976;2023-06-10T07:36:13;100106.31;;;22.73;100.00
76124;BME280;65173;48.066;20.976;2023-06-10T07:39:16;100107.53;;;22.58;100.00
76124;BME280;65173;48.066;20.976;2023-06-10T07:42:19;100110.53;;;22.81;100.00
76124;BME280;65173;48.066;20.976;2023-06-10T07:45:22;100107.91;;;23.19;100.00
76124;BME280;65173;48.066;20.976;2023-06-10T07:48:24;100103.00;;;23.44;100.00
76124;BME280;65173;48.066;20.976;2023-06-10T07:51:27;100102.50;;;23.57;99.20
76124;BME280;65173;48.066;20.976;2023-06-10T07:54:30;100104.47;;;23.56;100.00
76124;BME280;65173;48.066;20.976;2023-06-10T07:57:32;100108.41;;;23.03;94.45
76124;BME280;65173;48.066;20.976;2023-06-10T08:00:38;100109.28;;;23.38;99.10
76124;BME280;65173;48.066;20.976;2023-06-10T08:03:42;100113.63;;;23.69;97.41
76124;BME280;65173;48.066;20.976;2023-06-10T08:06:45;100120.03;;;23.07;91.56
76124;BME280;65173;48.066;20.976;2023-06-10T08:09:48;100113.59;;;23.32;97.42
76124;BME280;65173;48.066;20.976;2023-06-10T08:12:50;100110.41;;;23.81;99.47
76124;BME280;65173;48.066;20.976;2023-06-10T08:15:53;100112.69;;;23.83;92.63
76124;BME280;65173;48.066;20.976;2023-06-10T08:18:57;100112.28;;;23.47;92.00
76124;BME280;65173;48.066;20.976;2023-06-10T08:22:00;100111.38;;;23.23;92.95
76124;BME280;65173;48.066;20.976;2023-06-10T08:25:02;100111.25;;;23.75;95.36
76124;BME280;65173;48.066;20.976;2023-06-10T08:28:06;100105.34;;;23.42;94.95
76124;BME280;65173;48.066;20.976;2023-06-10T08:31:08;100101.06;;;23.82;97.14
76124;BME280;65173;48.066;20.976;2023-06-10T08:34:11;100100.50;;;24.82;94.01
76124;BME280;65173;48.066;20.976;2023-06-10T08:37:14;100092.34;;;25.06;91.26
76124;BME280;65173;48.066;20.976;2023-06-10T08:40:17;100093.03;;;24.60;89.41
76124;BME280;65173;48.066;20.976;2023-06-10T08:43:34;100089.25;;;24.53;89.48
76124;BME280;65173;48.066;20.976;2023-06-10T08:46:41;100089.13;;;24.87;90.41
76124;BME280;65173;48.066;20.976;2023-06-10T08:49:47;100095.53;;;24.74;84.62
76124;BME280;65173;48.066;20.976;2023-06-10T08:52:53;100097.94;;;24.45;89.19
76124;BME280;65173;48.066;20.976;2023-06-10T08:55:58;100086.53;;;25.47;87.93
76124;BME280;65173;48.066;20.976;2023-06-10T08:59:03;100082.13;;;24.86;83.53
76124;BME280;65173;48.066;20.976;2023-06-10T09:02:06;100081.34;;;25.96;88.33
76124;BME280;65173;48.066;20.976;2023-06-10T09:05:09;100078.25;;;25.31;87.90
76124;BME280;65173;48.066;20.976;2023-06-10T09:08:12;100066.56;;;25.73;90.15
76124;BME280;65173;48.066;20.976;2023-06-10T09:11:18;100058.41;;;27.81;79.29
76124;BME280;65173;48.066;20.976;2023-06-10T09:14:21;100063.72;;;27.88;81.11
76124;BME280;65173;48.066;20.976;2023-06-10T09:17:23;100062.13;;;27.16;79.95
76124;BME280;65173;48.066;20.976;2023-06-10T09:20:26;100062.78;;;25.67;81.48
76124;BME280;65173;48.066;20.976;2023-06-10T09:23:29;100052.84;;;26.81;79.19
76124;BME280;65173;48.066;20.976;2023-06-10T09:26:33;100047.81;;;26.63;79.15
76124;BME280;65173;48.066;20.976;2023-06-10T09:29:54;100045.06;;;26.96;80.39
76124;BME280;65173;48.066;20.976;2023-06-10T09:33:00;100048.88;;;27.73;70.90
76124;BME280;65173;48.066;20.976;2023-06-10T09:36:03;100047.84;;;26.27;78.26
76124;BME280;65173;48.066;20.976;2023-06-10T09:39:14;100045.31;;;26.01;77.55
76124;BME280;65173;48.066;20.976;2023-06-10T09:42:19;100045.66;;;24.77;81.32
76124;BME280;65173;48.066;20.976;2023-06-10T09:45:23;100037.38;;;26.75;82.14
76124;BME280;65173;48.066;20.976;2023-06-10T09:48:26;100034.38;;;26.85;78.03
76124;BME280;65173;48.066;20.976;2023-06-10T09:51:29;100035.41;;;27.78;75.16
76124;BME280;65173;48.066;20.976;2023-06-10T09:54:31;100030.53;;;26.99;76.79
76124;BME280;65173;48.066;20.976;2023-06-10T09:57:34;100029.78;;;26.82;83.23
76124;BME280;65173;48.066;20.976;2023-06-10T10:00:38;100035.69;;;26.48;82.27
76124;BME280;65173;48.066;20.976;2023-06-10T10:03:48;100027.81;;;26.50;79.81
76124;BME280;65173;48.066;20.976;2023-06-10T10:06:51;100016.75;;;26.21;80.27
76124;BME280;65173;48.066;20.976;2023-06-10T10:09:54;100022.81;;;25.57;79.40
76124;BME280;65173;48.066;20.976;2023-06-10T10:12:57;100025.38;;;25.44;82.84
76124;BME280;65173;48.066;20.976;2023-06-10T10:16:04;100012.31;;;25.36;83.23
76124;BME280;65173;48.066;20.976;2023-06-10T10:19:29;100017.88;;;25.48;82.83
76124;BME280;65173;48.066;20.976;2023-06-10T10:22:40;100007.91;;;25.62;80.87
76124;BME280;65173;48.066;20.976;2023-06-10T10:25:43;100001.47;;;27.88;77.89
76124;BME280;65173;48.066;20.976;2023-06-10T10:29:01;100002.06;;;26.96;77.93
76124;BME280;65173;48.066;20.976;2023-06-10T10:32:08;100002.88;;;27.68;75.94
76124;BME280;65173;48.066;20.976;2023-06-10T10:35:16;99990.50;;;26.89;74.34
76124;BME280;65173;48.066;20.976;2023-06-10T10:38:24;100000.59;;;27.91;71.42
76124;BME280;65173;48.066;20.976;2023-06-10T10:41:28;100000.09;;;28.82;76.69
76124;BME280;65173;48.066;20.976;2023-06-10T10:44:31;99994.84;;;29.84;65.65
76124;BME280;65173;48.066;20.976;2023-06-10T10:47:36;99983.94;;;29.71;64.03
76124;BME280;65173;48.066;20.976;2023-06-10T10:50:40;99992.13;;;29.62;68.14
76124;BME280;65173;48.066;20.976;2023-06-10T10:53:43;99984.28;;;30.62;66.73
76124;BME280;65173;48.066;20.976;2023-06-10T11:00:12;99972.53;;;27.75;68.19
76124;BME280;65173;48.066;20.976;2023-06-10T11:03:15;99976.47;;;26.42;77.08
76124;BME280;65173;48.066;20.976;2023-06-10T11:06:19;99962.88;;;27.28;72.22
76124;BME280;65173;48.066;20.976;2023-06-10T11:09:26;99966.59;;;28.87;67.52
76124;BME280;65173;48.066;20.976;2023-06-10T11:15:58;99967.88;;;28.60;65.86
76124;BME280;65173;48.066;20.976;2023-06-10T11:19:01;99952.59;;;29.59;70.93
76124;BME280;65173;48.066;20.976;2023-06-10T11:22:05;99953.56;;;29.22;68.01
76124;BME280;65173;48.066;20.976;2023-06-10T11:25:13;99964.94;;;30.35;63.52
76124;BME280;65173;48.066;20.976;2023-06-10T11:28:18;99968.69;;;29.05;66.69
76124;BME280;65173;48.066;20.976;2023-06-10T11:31:26;99967.31;;;27.51;68.63
76124;BME280;65173;48.066;20.976;2023-06-10T11:34:29;99966.94;;;27.91;69.16
76124;BME280;65173;48.066;20.976;2023-06-10T11:37:32;99961.75;;;27.55;71.42
76124;BME280;65173;48.066;20.976;2023-06-10T11:40:36;99963.84;;;29.30;69.06
76124;BME280;65173;48.066;20.976;2023-06-10T11:43:43;99962.81;;;30.48;62.14
76124;BME280;65173;48.066;20.976;2023-06-10T11:46:47;99961.22;;;29.05;65.95
76124;BME280;65173;48.066;20.976;2023-06-10T11:49:57;99952.19;;;30.01;64.20
76124;BME280;65173;48.066;20.976;2023-06-10T11:53:01;99949.63;;;29.23;64.97
76124;BME280;65173;48.066;20.976;2023-06-10T11:56:04;99957.06;;;28.31;67.15
76124;BME280;65173;48.066;20.976;2023-06-10T11:59:06;99946.69;;;28.61;69.27
76124;BME280;65173;48.066;20.976;2023-06-10T12:02:15;99953.28;;;29.73;66.78
76124;BME280;65173;48.066;20.976;2023-06-10T12:05:18;99943.69;;;29.46;67.40
76124;BME280;65173;48.066;20.976;2023-06-10T12:08:22;99949.00;;;28.50;68.70
76124;BME280;65173;48.066;20.976;2023-06-10T12:11:25;99940.00;;;27.89;68.62
76124;BME280;65173;48.066;20.976;2023-06-10T12:14:54;99940.75;;;29.19;68.59
76124;BME280;65173;48.066;20.976;2023-06-10T12:17:59;99933.84;;;28.23;71.05
76124;BME280;65173;48.066;20.976;2023-06-10T12:21:02;99933.28;;;27.78;75.61
76124;BME280;65173;48.066;20.976;2023-06-10T12:24:08;99937.88;;;27.55;72.50
76124;BME280;65173;48.066;20.976;2023-06-10T12:27:12;99933.31;;;26.66;77.78
76124;BME280;65173;48.066;20.976;2023-06-10T12:30:19;99936.09;;;26.94;78.15
76124;BME280;65173;48.066;20.976;2023-06-10T12:33:22;99930.38;;;27.18;76.97
76124;BME280;65173;48.066;20.976;2023-06-10T12:36:25;99929.47;;;27.62;72.80
76124;BME280;65173;48.066;20.976;2023-06-10T12:39:28;99919.81;;;27.83;74.90
76124;BME280;65173;48.066;20.976;2023-06-10T12:42:31;99934.47;;;28.40;71.11
76124;BME280;65173;48.066;20.976;2023-06-10T12:45:37;99935.59;;;28.99;72.19
76124;BME280;65173;48.066;20.976;2023-06-10T12:48:51;99928.22;;;29.40;68.52
76124;BME280;65173;48.066;20.976;2023-06-10T12:51:54;99931.38;;;29.38;68.82
76124;BME280;65173;48.066;20.976;2023-06-10T12:54:57;99928.16;;;29.30;66.56
76124;BME280;65173;48.066;20.976;2023-06-10T12:58:01;99915.47;;;29.24;68.73
76124;BME280;65173;48.066;20.976;2023-06-10T13:01:04;99916.69;;;29.85;68.96
76124;BME280;65173;48.066;20.976;2023-06-10T13:04:07;99901.22;;;30.46;69.21
76124;BME280;65173;48.066;20.976;2023-06-10T13:07:10;99891.44;;;30.17;63.37
76124;BME280;65173;48.066;20.976;2023-06-10T13:10:14;99886.84;;;30.14;67.31
76124;BME280;65173;48.066;20.976;2023-06-10T13:13:16;99881.81;;;30.49;66.53
76124;BME280;65173;48.066;20.976;2023-06-10T13:16:20;99880.75;;;30.37;60.12
76124;BME280;65173;48.066;20.976;2023-06-10T13:19:22;99886.38;;;30.07;61.37
76124;BME280;65173;48.066;20.976;2023-06-10T13:22:26;99883.13;;;29.90;61.20
76124;BME280;65173;48.066;20.976;2023-06-10T13:25:29;99876.81;;;29.40;65.00
76124;BME280;65173;48.066;20.976;2023-06-10T13:28:32;99879.06;;;28.67;67.08
76124;BME280;65173;48.066;20.976;2023-06-10T13:31:37;99879.41;;;28.69;67.68
76124;BME280;65173;48.066;20.976;2023-06-10T13:34:40;99877.81;;;28.24;69.03
76124;BME280;65173;48.066;20.976;2023-06-10T13:37:42;99883.56;;;27.79;66.01
76124;BME280;65173;48.066;20.976;2023-06-10T13:40:45;99882.50;;;27.77;67.24
76124;BME280;65173;48.066;20.976;2023-06-10T13:43:48;99883.97;;;27.52;68.37
76124;BME280;65173;48.066;20.976;2023-06-10T13:46:51;99888.13;;;27.44;68.43
76124;BME280;65173;48.066;20.976;2023-06-10T13:49:53;99888.31;;;27.12;70.35
76124;BME280;65173;48.066;20.976;2023-06-10T13:52:56;99888.84;;;27.07;71.72
76124;BME280;65173;48.066;20.976;2023-06-10T13:55:59;99897.28;;;27.12;70.91
76124;BME280;65173;48.066;20.976;2023-06-10T13:59:02;99890.09;;;27.31;72.19
76124;BME280;65173;48.066;20.976;2023-06-10T14:02:06;99892.41;;;28.21;68.34
76124;BME280;65173;48.066;20.976;2023-06-10T14:05:09;99889.81;;;27.92;67.26
76124;BME280;65173;48.066;20.976;2023-06-10T14:08:12;99880.88;;;27.25;71.53
76124;BME280;65173;48.066;20.976;2023-06-10T14:11:16;99878.19;;;27.88;69.68
76124;BME280;65173;48.066;20.976;2023-06-10T14:14:18;99877.25;;;28.64;67.40
76124;BME280;65173;48.066;20.976;2023-06-10T14:17:21;99871.69;;;28.77;66.68
76124;BME280;65173;48.066;20.976;2023-06-10T14:20:28;99875.03;;;28.37;68.69
76124;BME280;65173;48.066;20.976;2023-06-10T14:23:33;99874.91;;;27.93;69.81
76124;BME280;65173;48.066;20.976;2023-06-10T14:26:36;99874.56;;;27.53;69.33
76124;BME280;65173;48.066;20.976;2023-06-10T14:29:39;99866.22;;;27.44;72.97
76124;BME280;65173;48.066;20.976;2023-06-10T14:32:43;99870.69;;;27.13;72.77
76124;BME280;65173;48.066;20.976;2023-06-10T14:35:45;99876.63;;;26.82;70.51
76124;BME280;65173;48.066;20.976;2023-06-10T14:38:48;99877.66;;;26.43;71.44
76124;BME280;65173;48.066;20.976;2023-06-10T14:41:51;99880.75;;;26.29;74.03
76124;BME280;65173;48.066;20.976;2023-06-10T14:44:55;99879.97;;;26.28;73.27
76124;BME280;65173;48.066;20.976;2023-06-10T14:47:57;99874.50;;;26.45;75.71
76124;BME280;65173;48.066;20.976;2023-06-10T14:51:00;99882.28;;;25.81;77.31
76124;BME280;65173;48.066;20.976;2023-06-10T14:54:03;99882.75;;;25.60;80.15
76124;BME280;65173;48.066;20.976;2023-06-10T14:57:06;99887.66;;;25.13;80.49
76124;BME280;65173;48.066;20.976;2023-06-10T15:00:10;99882.63;;;24.48;82.14
76124;BME280;65173;48.066;20.976;2023-06-10T15:03:12;99880.63;;;23.52;87.83
76124;BME280;65173;48.066;20.976;2023-06-10T15:06:15;99884.22;;;22.77;88.58
76124;BME280;65173;48.066;20.976;2023-06-10T15:09:23;99890.22;;;22.58;88.92
76124;BME280;65173;48.066;20.976;2023-06-10T15:12:26;99896.34;;;22.69;89.64
76124;BME280;65173;48.066;20.976;2023-06-10T15:15:30;99889.53;;;22.92;87.97
76124;BME280;65173;48.066;20.976;2023-06-10T15:18:33;99892.44;;;23.08;89.49
76124;BME280;65173;48.066;20.976;2023-06-10T15:21:35;99908.72;;;23.42;89.41
76124;BME280;65173;48.066;20.976;2023-06-10T15:24:39;99910.50;;;23.25;88.70
76124;BME280;65173;48.066;20.976;2023-06-10T15:27:41;99912.97;;;23.12;83.70
76124;BME280;65173;48.066;20.976;2023-06-10T15:30:44;99922.25;;;23.15;83.12
76124;BME280;65173;48.066;20.976;2023-06-10T15:33:47;99917.09;;;23.24;87.39
76124;BME280;65173;48.066;20.976;2023-06-10T15:36:50;99920.44;;;23.05;89.32
76124;BME280;65173;48.066;20.976;2023-06-10T15:39:52;99911.91;;;23.03;88.72
76124;BME280;65173;48.066;20.976;2023-06-10T15:42:56;99901.97;;;22.89;91.00
76124;BME280;65173;48.066;20.976;2023-06-10T15:45:58;99892.66;;;22.90;93.54
76124;BME280;65173;48.066;20.976;2023-06-10T15:49:01;99886.09;;;22.84;94.02
76124;BME280;65173;48.066;20.976;2023-06-10T15:52:05;99881.84;;;22.83;90.94
76124;BME280;65173;48.066;20.976;2023-06-10T15:55:08;99882.56;;;22.91;94.72
76124;BME280;65173;48.066;20.976;2023-06-10T15:58:11;99883.66;;;22.93;91.17